Time;durP1;ratioP1;P1;durP2;ratioP2;P2;SDS_P1;SDS_P2;PMS_P1;PMS_P2;Temp;Humidity;BMP_temperature;BMP_pressure;BME280_temperature;BME280_humidity;BME280_pressure;Samples;Min_cycle;Max_cycle;Signal;HPM_P1;HPM_P2
2021/07/12 00:02:06;;;;;;;3.38;3.08;;;19.30;99.90;;;;;;5035615;28;20044;-44
2021/07/12 00:04:31;;;;;;;3.42;3.03;;;19.20;99.90;;;;;;5035756;28;20025;-43
2021/07/12 00:06:56;;;;;;;5.40;3.40;;;19.20;99.90;;;;;;5035627;28;20083;-44
2021/07/12 00:09:22;;;;;;;5.65;4.07;;;19.20;99.90;;;;;;5034320;28;20037;-45
2021/07/12 00:11:48;;;;;;;5.60;4.13;;;19.20;99.90;;;;;;5035432;28;20389;-45
2021/07/12 00:14:13;;;;;;;3.80;3.50;;;19.10;99.90;;;;;;5035350;28;20033;-40
2021/07/12 00:16:39;;;;;;;5.05;3.88;;;19.10;99.90;;;;;;5035393;28;20037;-41
2021/07/12 00:19:05;;;;;;;3.38;3.05;;;19.10;99.90;;;;;;5035479;28;20032;-43
2021/07/12 00:21:30;;;;;;;4.38;3.95;;;19.10;99.90;;;;;;5035455;28;20025;-46
2021/07/12 00:23:56;;;;;;;3.60;3.30;;;19.10;99.90;;;;;;5034106;28;20033;-40
2021/07/12 00:26:22;;;;;;;4.13;3.75;;;19.10;99.90;;;;;;5035344;28;20079;-44
2021/07/12 00:28:47;;;;;;;4.68;4.18;;;19.10;99.90;;;;;;5035385;28;20025;-43
2021/07/12 00:31:13;;;;;;;7.07;4.57;;;19.10;99.90;;;;;;5035187;28;20033;-42
2021/07/12 00:33:39;;;;;;;4.97;4.53;;;19.00;99.90;;;;;;5035226;28;20029;-44
2021/07/12 00:36:06;;;;;;;3.65;3.25;;;19.00;99.90;;;;;;5035130;28;20049;-41
2021/07/12 00:38:32;;;;;;;5.55;3.75;;;18.90;99.90;;;;;;5033918;28;20025;-42
2021/07/12 00:40:57;;;;;;;4.40;4.00;;;18.90;99.90;;;;;;5033853;28;20029;-41
2021/07/12 00:43:23;;;;;;;4.00;3.60;;;18.90;99.90;;;;;;5035048;28;20057;-43
2021/07/12 00:45:49;;;;;;;4.47;4.07;;;18.90;99.90;;;;;;5035061;28;20373;-44
2021/07/12 00:48:14;;;;;;;3.80;3.50;;;18.80;99.90;;;;;;5034915;28;20029;-41
2021/07/12 00:50:42;;;;;;;3.40;3.10;;;18.80;99.90;;;;;;5035006;28;20083;-43
2021/07/12 00:53:09;;;;;;;3.50;3.20;;;18.80;99.90;;;;;;5032313;28;20381;-42
2021/07/12 00:55:44;;;;;;;4.53;3.65;;;18.70;99.90;;;;;;5034852;28;20381;-43
2021/07/12 00:58:13;;;;;;;3.47;3.20;;;18.70;99.90;;;;;;5034663;28;20354;-43
2021/07/12 01:00:40;;;;;;;3.95;3.55;;;18.70;99.90;;;;;;5034802;28;20366;-44
2021/07/12 01:03:07;;;;;;;3.75;3.45;;;18.70;99.90;;;;;;5034477;28;20049;-44
2021/07/12 01:05:34;;;;;;;4.13;3.70;;;18.60;99.90;;;;;;5034610;28;20026;-41
2021/07/12 01:08:00;;;;;;;3.90;3.60;;;18.60;99.90;;;;;;5033326;28;20045;-44
2021/07/12 01:10:27;;;;;;;3.88;3.58;;;18.60;99.90;;;;;;5034757;28;20064;-41
2021/07/12 01:13:28;;;;;;;6.95;4.63;;;18.60;99.90;;;;;;5034384;28;20021;-41
2021/07/12 01:16:26;;;;;;;4.45;3.97;;;18.50;99.90;;;;;;5034366;28;20022;-42
2021/07/12 01:19:19;;;;;;;4.18;3.78;;;18.40;99.90;;;;;;5034396;28;20013;-39
2021/07/12 01:22:25;;;;;;;4.32;3.78;;;18.40;99.90;;;;;;5034388;28;20040;-46
2021/07/12 01:25:28;;;;;;;5.72;5.15;;;18.40;99.90;;;;;;5034224;28;20025;-43
2021/07/12 01:28:12;;;;;;;5.03;3.88;;;18.30;99.90;;;;;;5034153;28;20152;-42
2021/07/12 01:31:09;;;;;;;5.03;4.53;;;18.30;99.90;;;;;;5032860;28;20029;-42
2021/07/12 01:34:00;;;;;;;5.60;5.05;;;18.30;99.90;;;;;;5034010;28;20117;-39
2021/07/12 01:37:02;;;;;;;5.35;4.68;;;18.20;99.90;;;;;;5033914;28;20041;-40
2021/07/12 01:39:38;;;;;;;4.20;3.72;;;18.20;99.90;;;;;;5032589;28;20032;-45
2021/07/12 01:42:18;;;;;;;4.50;4.10;;;18.20;99.90;;;;;;5033808;28;20025;-42
2021/07/12 01:45:02;;;;;;;5.65;4.65;;;18.10;99.90;;;;;;5033916;28;20350;-43
2021/07/12 01:47:41;;;;;;;5.32;4.00;;;18.10;99.90;;;;;;5032722;28;20040;-44
2021/07/12 01:50:22;;;;;;;4.32;3.92;;;18.00;99.90;;;;;;5033817;28;20034;-41
2021/07/12 01:53:07;;;;;;;6.53;5.05;;;18.00;99.90;;;;;;5032553;28;20029;-42
2021/07/12 01:55:49;;;;;;;3.90;3.60;;;17.90;99.90;;;;;;5033550;28;20037;-43
2021/07/12 01:58:25;;;;;;;5.55;4.57;;;17.90;99.90;;;;;;5033584;28;20492;-42
2021/07/12 02:00:51;;;;;;;4.85;4.45;;;17.90;99.90;;;;;;5033479;28;20108;-41
2021/07/12 02:03:18;;;;;;;6.35;5.35;;;17.80;99.90;;;;;;5033344;28;20128;-42
2021/07/12 02:05:45;;;;;;;4.35;3.95;;;17.80;99.90;;;;;;5033550;28;20030;-43
2021/07/12 02:08:14;;;;;;;4.78;4.35;;;17.80;99.90;;;;;;5031700;28;20034;-41
2021/07/12 02:10:42;;;;;;;4.63;4.22;;;17.70;99.90;;;;;;5033356;28;20036;-41
2021/07/12 02:13:07;;;;;;;5.10;4.57;;;17.70;99.90;;;;;;5033344;28;20033;-45
2021/07/12 02:15:34;;;;;;;5.32;4.93;;;17.70;99.90;;;;;;5033140;28;20068;-44
2021/07/12 02:18:02;;;;;;;4.75;4.35;;;17.60;99.90;;;;;;5032035;28;20025;-46
2021/07/12 02:20:29;;;;;;;5.32;4.82;;;17.60;99.90;;;;;;5033249;28;20413;-40
2021/07/12 02:22:56;;;;;;;11.77;5.85;;;17.60;99.90;;;;;;5031982;28;20040;-43
2021/07/12 02:25:22;;;;;;;5.50;5.00;;;17.50;99.90;;;;;;5033160;28;20021;-41
2021/07/12 02:27:48;;;;;;;5.78;5.28;;;17.50;99.90;;;;;;5033088;28;20029;-45
2021/07/12 02:30:16;;;;;;;9.23;5.53;;;17.50;99.90;;;;;;5033134;28;20404;-43
2021/07/12 02:32:43;;;;;;;5.30;4.90;;;17.50;99.90;;;;;;5033277;28;20068;-43
2021/07/12 02:35:12;;;;;;;5.85;5.35;;;17.40;99.90;;;;;;5032901;28;20033;-43
2021/07/12 02:37:41;;;;;;;5.35;4.88;;;17.40;99.90;;;;;;5031728;28;20026;-41
2021/07/12 02:40:10;;;;;;;6.57;5.97;;;17.30;99.90;;;;;;5032987;28;20191;-41
2021/07/12 02:42:38;;;;;;;5.10;4.70;;;17.30;99.90;;;;;;5032789;28;20029;-42
2021/07/12 02:45:04;;;;;;;7.25;6.55;;;17.20;99.90;;;;;;5032954;28;20088;-47
2021/07/12 02:47:30;;;;;;;7.88;5.65;;;17.20;99.90;;;;;;5032849;28;20032;-41
2021/07/12 02:49:56;;;;;;;7.40;6.70;;;17.20;99.90;;;;;;5032846;28;20037;-42
2021/07/12 02:52:33;;;;;;;6.60;5.88;;;17.20;99.90;;;;;;5031486;28;20035;-45
2021/07/12 02:55:00;;;;;;;8.00;5.50;;;17.20;99.90;;;;;;5032654;28;20440;-44
2021/07/12 02:57:27;;;;;;;6.53;5.90;;;17.20;99.90;;;;;;5032737;28;20045;-44
2021/07/12 02:59:53;;;;;;;7.78;5.95;;;17.20;99.90;;;;;;5032769;28;20029;-41
2021/07/12 03:02:18;;;;;;;7.78;6.47;;;17.20;99.90;;;;;;5032542;28;20132;-42
2021/07/12 03:04:44;;;;;;;7.80;7.03;;;17.20;99.90;;;;;;5032707;28;20100;-42
2021/07/12 03:07:21;;;;;;;9.13;8.15;;;17.20;99.90;;;;;;5032540;28;20397;-42
2021/07/12 03:09:50;;;;;;;6.05;5.55;;;17.20;99.90;;;;;;5031252;28;20029;-43
2021/07/12 03:12:31;;;;;;;7.95;7.25;;;17.20;99.90;;;;;;5032573;28;20029;-45
2021/07/12 03:15:08;;;;;;;8.80;7.90;;;17.20;99.90;;;;;;5032509;28;20030;-42
2021/07/12 03:17:38;;;;;;;8.82;7.85;;;17.10;99.90;;;;;;5032531;28;20030;-44
2021/07/12 03:20:06;;;;;;;8.13;7.32;;;17.20;99.90;;;;;;5034900;28;20028;-43
2021/07/12 03:22:34;;;;;;;8.13;7.32;;;17.20;99.90;;;;;;5035219;28;20021;-42
2021/07/12 03:25:00;;;;;;;9.75;7.53;;;17.30;99.90;;;;;;5036504;28;20057;-42
2021/07/12 03:27:27;;;;;;;7.28;6.03;;;17.30;99.90;;;;;;5036445;28;20036;-42
2021/07/12 03:29:54;;;;;;;7.95;7.13;;;17.30;99.90;;;;;;5036424;28;20017;-40
2021/07/12 03:32:23;;;;;;;7.20;6.60;;;17.40;99.90;;;;;;5036401;28;20022;-48
2021/07/12 03:34:51;;;;;;;8.48;7.47;;;17.40;99.90;;;;;;5036172;28;20026;-47
2021/07/12 03:37:18;;;;;;;8.32;7.45;;;17.50;99.90;;;;;;5035002;28;20026;-43
2021/07/12 03:39:44;;;;;;;7.80;7.10;;;17.60;99.90;;;;;;5034960;28;20377;-47
2021/07/12 03:42:11;;;;;;;8.73;7.82;;;17.60;99.90;;;;;;5036185;28;20021;-44
2021/07/12 03:44:39;;;;;;;8.05;7.28;;;17.70;99.90;;;;;;5036115;28;20028;-44
2021/07/12 03:47:04;;;;;;;7.38;6.68;;;17.70;99.90;;;;;;5035999;28;20021;-44
2021/07/12 03:49:30;;;;;;;7.10;6.50;;;17.80;99.90;;;;;;5036006;28;20026;-47
2021/07/12 03:51:55;;;;;;;9.88;8.25;;;17.80;99.90;;;;;;5036008;28;20084;-44
2021/07/12 03:54:21;;;;;;;7.68;6.90;;;17.80;99.90;;;;;;5034617;28;20083;-45
2021/07/12 03:56:47;;;;;;;8.25;7.53;;;17.90;99.90;;;;;;5036019;28;20056;-44
2021/07/12 03:59:12;;;;;;;8.82;8.07;;;17.90;99.90;;;;;;5035864;28;20436;-42
2021/07/12 04:01:38;;;;;;;9.18;8.20;;;17.90;99.90;;;;;;5035731;28;20030;-42
2021/07/12 04:04:03;;;;;;;8.30;7.50;;;17.90;99.90;;;;;;5035601;28;20493;-44
2021/07/12 04:06:30;;;;;;;9.15;8.30;;;18.00;99.90;;;;;;5035693;28;20057;-47
2021/07/12 04:08:57;;;;;;;9.55;8.65;;;18.00;99.90;;;;;;5034324;28;20435;-44
2021/07/12 04:11:29;;;;;;;8.93;7.85;;;18.00;99.90;;;;;;5035607;28;20025;-48
2021/07/12 04:13:54;;;;;;;7.63;7.03;;;18.00;99.90;;;;;;5035561;28;20029;-47
2021/07/12 04:16:20;;;;;;;8.20;7.50;;;18.10;99.90;;;;;;5035421;28;20071;-46
2021/07/12 04:18:46;;;;;;;8.25;7.55;;;18.10;99.90;;;;;;5035496;28;20507;-44
2021/07/12 04:21:13;;;;;;;7.75;7.05;;;18.10;99.90;;;;;;5035470;28;20025;-42
2021/07/12 04:23:38;;;;;;;9.52;8.57;;;18.20;99.90;;;;;;5034361;28;20095;-45
2021/07/12 04:26:04;;;;;;;9.52;7.97;;;18.20;99.90;;;;;;5035399;28;20048;-51
2021/07/12 04:28:29;;;;;;;8.48;7.13;;;18.20;99.90;;;;;;5035302;28;20029;-44
2021/07/12 04:30:55;;;;;;;9.13;7.63;;;18.20;99.90;;;;;;5034868;28;20048;-42
2021/07/12 04:33:20;;;;;;;8.60;7.80;;;18.20;99.90;;;;;;5035231;28;20450;-44
2021/07/12 04:35:46;;;;;;;7.82;7.10;;;18.30;99.90;;;;;;5035117;28;20404;-48
2021/07/12 04:38:11;;;;;;;8.23;7.53;;;18.30;99.90;;;;;;5033887;28;20026;-46
2021/07/12 04:40:37;;;;;;;9.05;7.75;;;18.40;99.90;;;;;;5034999;28;20061;-46
2021/07/12 04:43:02;;;;;;;7.57;6.88;;;18.40;99.90;;;;;;5035028;28;20113;-42
2021/07/12 04:45:28;;;;;;;8.38;6.55;;;18.40;99.90;;;;;;5034857;28;20388;-45
2021/07/12 04:47:54;;;;;;;7.78;6.97;;;18.40;99.90;;;;;;5034902;28;20406;-46
2021/07/12 04:50:20;;;;;;;8.35;7.53;;;18.50;99.90;;;;;;5034935;28;20423;-45
2021/07/12 04:52:45;;;;;;;6.78;6.13;;;18.50;99.90;;;;;;5033505;28;20030;-41
2021/07/12 04:55:11;;;;;;;7.55;6.72;;;18.50;99.90;;;;;;5034797;28;20021;-42
2021/07/12 04:57:37;;;;;;;6.80;6.20;;;18.60;99.90;;;;;;5034790;28;20038;-43
2021/07/12 05:00:08;;;;;;;6.80;6.10;;;18.60;99.90;;;;;;5034815;28;20096;-45
2021/07/12 05:02:34;;;;;;;6.47;5.85;;;18.60;99.90;;;;;;5034517;28;20145;-46
2021/07/12 05:04:59;;;;;;;6.22;5.72;;;18.60;99.90;;;;;;5034711;28;20104;-43
2021/07/12 05:07:25;;;;;;;7.43;6.53;;;18.60;99.90;;;;;;5033327;28;20318;-44
2021/07/12 05:09:51;;;;;;;7.93;7.05;;;18.70;99.90;;;;;;5034555;28;20030;-44
2021/07/12 05:12:19;;;;;;;7.32;6.38;;;18.70;99.90;;;;;;5034533;28;20518;-40
2021/07/12 05:14:45;;;;;;;6.45;5.85;;;18.70;99.90;;;;;;5034307;28;20076;-47
2021/07/12 05:17:12;;;;;;;5.80;5.30;;;18.70;99.90;;;;;;5034435;28;20033;-44
2021/07/12 05:19:38;;;;;;;6.60;5.57;;;18.70;99.90;;;;;;5034349;28;20028;-42
2021/07/12 05:22:04;;;;;;;6.40;5.60;;;18.70;99.90;;;;;;5034333;28;20021;-43
2021/07/12 05:24:29;;;;;;;5.90;5.40;;;18.80;99.90;;;;;;5032977;28;20104;-42
2021/07/12 05:26:55;;;;;;;6.43;5.80;;;18.80;99.90;;;;;;5034226;28;20035;-40
2021/07/12 05:29:20;;;;;;;7.10;5.80;;;18.80;99.90;;;;;;5034134;28;20109;-42
2021/07/12 05:31:46;;;;;;;6.22;5.72;;;18.90;99.90;;;;;;5034116;28;20029;-46
2021/07/12 05:34:12;;;;;;;7.50;6.82;;;18.90;99.90;;;;;;5033979;28;20025;-44
2021/07/12 05:36:38;;;;;;;8.02;7.32;;;19.00;99.90;;;;;;5034040;28;20030;-42
2021/07/12 05:39:04;;;;;;;7.18;6.40;;;19.20;99.90;;;;;;5032724;28;20044;-42
2021/07/12 05:41:29;;;;;;;7.72;5.93;;;19.40;99.90;;;;;;5033263;28;20104;-44
2021/07/12 05:43:55;;;;;;;7.57;6.70;;;19.60;99.90;;;;;;5033753;28;20140;-41
2021/07/12 05:46:21;;;;;;;7.07;6.47;;;19.90;99.90;;;;;;5033762;28;20033;-43
2021/07/12 05:48:46;;;;;;;8.30;7.50;;;20.40;99.90;;;;;;5033808;28;20033;-43
2021/07/12 05:51:12;;;;;;;6.63;6.03;;;20.80;99.90;;;;;;5033724;28;20037;-43
2021/07/12 05:53:37;;;;;;;7.60;6.78;;;21.20;99.90;;;;;;5032390;28;20029;-41
2021/07/12 05:56:04;;;;;;;6.85;6.13;;;21.50;99.90;;;;;;5033581;28;20377;-45
2021/07/12 05:58:29;;;;;;;8.00;6.90;;;21.70;99.90;;;;;;5033530;28;20022;-42
2021/07/12 06:00:55;;;;;;;7.38;6.68;;;21.90;99.90;;;;;;5033502;28;20029;-44
2021/07/12 06:03:21;;;;;;;8.05;7.32;;;22.10;99.90;;;;;;5033441;28;20042;-47
2021/07/12 06:05:47;;;;;;;7.55;6.85;;;22.30;99.90;;;;;;5033453;28;20033;-44
2021/07/12 06:08:12;;;;;;;6.93;6.32;;;22.50;99.90;;;;;;5032157;28;20473;-43
2021/07/12 06:10:38;;;;;;;7.25;5.97;;;22.60;99.90;;;;;;5033294;28;20583;-41
2021/07/12 06:13:03;;;;;;;6.60;6.00;;;23.30;99.90;;;;;;5033300;28;20036;-44
2021/07/12 06:15:29;;;;;;;7.05;6.35;;;24.20;99.90;;;;;;5033171;28;20384;-41
2021/07/12 06:17:55;;;;;;;7.05;6.35;;;24.40;99.90;;;;;;5033259;28;20033;-44
2021/07/12 06:20:20;;;;;;;8.63;6.63;;;24.20;99.90;;;;;;5033338;28;20018;-42
2021/07/12 06:22:47;;;;;;;6.65;6.00;;;23.90;99.90;;;;;;5031899;28;20036;-42
2021/07/12 06:25:14;;;;;;;6.10;5.60;;;23.60;99.90;;;;;;5033202;28;20025;-42
2021/07/12 06:27:39;;;;;;;8.02;7.20;;;23.40;99.90;;;;;;5033085;28;20395;-42
2021/07/12 06:30:06;;;;;;;7.50;6.60;;;23.30;99.90;;;;;;5033030;28;20040;-45
2021/07/12 06:32:32;;;;;;;6.85;6.25;;;23.30;99.90;;;;;;5033103;28;20100;-49
2021/07/12 06:34:58;;;;;;;7.72;6.93;;;23.40;99.90;;;;;;5032938;28;20120;-43
2021/07/12 06:37:23;;;;;;;10.20;7.93;;;23.60;99.90;;;;;;5031826;28;20518;-42
2021/07/12 06:39:49;;;;;;;10.25;7.22;;;23.60;99.90;;;;;;5032947;28;20104;-41
2021/07/12 06:42:14;;;;;;;7.70;7.00;;;23.70;99.90;;;;;;5032938;28;20097;-40
2021/07/12 06:44:40;;;;;;;8.23;7.40;;;24.00;99.90;;;;;;5032753;28;20026;-44
2021/07/12 06:47:05;;;;;;;7.10;6.47;;;24.70;99.90;;;;;;5032950;28;20040;-41
2021/07/12 06:49:31;;;;;;;7.10;6.53;;;25.10;99.90;;;;;;5032892;28;20473;-42
2021/07/12 06:51:56;;;;;;;7.20;6.60;;;25.00;99.90;;;;;;5033078;28;20036;-42
2021/07/12 06:54:22;;;;;;;8.15;6.85;;;24.60;99.90;;;;;;5031380;28;20104;-47
2021/07/12 06:56:48;;;;;;;9.18;6.20;;;24.20;99.90;;;;;;5032710;28;20044;-46
2021/07/12 06:59:13;;;;;;;9.02;7.20;;;24.00;99.90;;;;;;5032684;28;20470;-40
2021/07/12 07:01:38;;;;;;;8.10;7.05;;;24.50;99.90;;;;;;5032662;28;20021;-40
2021/07/12 07:04:04;;;;;;;8.70;7.85;;;25.20;99.90;;;;;;5032552;28;20054;-40
2021/07/12 07:06:30;;;;;;;11.57;8.55;;;26.60;99.90;;;;;;5032739;28;20033;-43
2021/07/12 07:08:55;;;;;;;8.13;7.53;;;27.60;99.90;;;;;;5031263;28;20428;-42
2021/07/12 07:11:21;;;;;;;8.10;7.40;;;27.60;99.90;;;;;;5032632;28;20108;-42
2021/07/12 07:13:46;;;;;;;8.55;7.70;;;27.90;99.90;;;;;;5032419;28;20064;-42
2021/07/12 07:16:12;;;;;;;10.32;7.70;;;27.70;99.90;;;;;;5032529;28;20100;-42
2021/07/12 07:18:37;;;;;;;7.47;6.78;;;27.40;99.90;;;;;;5032611;28;20037;-42
2021/07/12 07:21:03;;;;;;;12.02;8.98;;;28.20;99.90;;;;;;5032568;28;20025;-41
2021/07/12 07:23:28;;;;;;;8.63;7.88;;;29.30;99.30;;;;;;5031244;28;20026;-40
2021/07/12 07:25:54;;;;;;;9.18;8.23;;;30.30;97.10;;;;;;5032503;28;20033;-42
2021/07/12 07:28:20;;;;;;;8.18;7.38;;;31.10;94.20;;;;;;5032319;28;20083;-43
2021/07/12 07:30:46;;;;;;;7.90;7.13;;;30.60;92.80;;;;;;5032446;28;20025;-44
2021/07/12 07:33:12;;;;;;;7.18;6.57;;;30.00;95.10;;;;;;5032401;28;20025;-45
2021/07/12 07:35:37;;;;;;;6.13;5.63;;;29.90;95.40;;;;;;5032332;28;20087;-43
2021/07/12 07:38:03;;;;;;;7.53;6.72;;;29.80;95.70;;;;;;5031132;28;20025;-45
2021/07/12 07:40:29;;;;;;;6.85;6.35;;;30.10;95.60;;;;;;5032352;28;20442;-43
2021/07/12 07:42:55;;;;;;;6.88;6.25;;;31.00;93.20;;;;;;5032212;28;20033;-45
2021/07/12 07:45:20;;;;;;;6.65;6.13;;;32.40;90.90;;;;;;5032321;28;20060;-42
2021/07/12 07:47:47;;;;;;;7.05;5.55;;;33.60;89.30;;;;;;5032266;28;20057;-42
2021/07/12 07:50:14;;;;;;;5.38;4.97;;;34.00;80.50;;;;;;5032296;28;20041;-45
2021/07/12 07:52:40;;;;;;;5.18;4.78;;;34.60;81.20;;;;;;5029769;28;20116;-42
2021/07/12 07:55:08;;;;;;;5.18;4.80;;;35.10;78.00;;;;;;5032170;28;20159;-42
2021/07/12 07:57:35;;;;;;;5.30;4.68;;;35.70;75.80;;;;;;5032182;28;20021;-44
2021/07/12 08:00:03;;;;;;;5.00;4.50;;;35.90;72.80;;;;;;5032093;28;20025;-44
2021/07/12 08:02:28;;;;;;;5.05;4.65;;;36.50;71.10;;;;;;5032115;28;20095;-42
2021/07/12 08:04:54;;;;;;;5.32;3.70;;;36.70;68.50;;;;;;5032670;28;20033;-44
2021/07/12 08:07:20;;;;;;;6.63;4.60;;;37.00;68.10;;;;;;5034430;28;20039;-40
2021/07/12 08:09:46;;;;;;;4.55;4.22;;;36.90;65.70;;;;;;5035732;28;20057;-43
2021/07/12 08:12:12;;;;;;;4.50;4.20;;;36.30;64.60;;;;;;5035574;28;20061;-42
2021/07/12 08:14:37;;;;;;;4.60;3.97;;;35.70;62.00;;;;;;5035541;28;20084;-42
2021/07/12 08:17:03;;;;;;;4.28;3.88;;;35.10;66.20;;;;;;5035569;28;20076;-43
2021/07/12 08:19:28;;;;;;;4.03;3.70;;;35.20;67.40;;;;;;5035544;28;20385;-43
2021/07/12 08:21:54;;;;;;;4.63;4.20;;;35.40;66.00;;;;;;5035467;28;20029;-43
2021/07/12 08:24:19;;;;;;;5.97;3.97;;;35.80;64.60;;;;;;5034138;28;20037;-42
2021/07/12 08:26:44;;;;;;;4.60;4.22;;;36.00;63.60;;;;;;5035280;28;20542;-41
2021/07/12 08:29:10;;;;;;;3.65;3.35;;;36.10;63.30;;;;;;5035303;28;20029;-40
2021/07/12 08:31:36;;;;;;;4.32;3.92;;;36.60;61.90;;;;;;5035362;28;20026;-44
2021/07/12 08:34:01;;;;;;;5.45;4.28;;;36.70;60.90;;;;;;5035449;28;20030;-44
2021/07/12 08:36:27;;;;;;;4.15;3.72;;;36.40;60.40;;;;;;5035177;28;20103;-44
2021/07/12 08:38:53;;;;;;;4.13;3.83;;;36.30;59.80;;;;;;5033908;28;20400;-43
2021/07/12 08:41:20;;;;;;;4.20;3.63;;;36.50;60.00;;;;;;5035029;28;20584;-43
2021/07/12 08:43:46;;;;;;;4.22;3.92;;;36.90;59.10;;;;;;5035095;28;20024;-42
2021/07/12 08:46:11;;;;;;;4.47;4.07;;;37.20;59.20;;;;;;5035090;28;20034;-44
2021/07/12 08:48:37;;;;;;;4.80;4.40;;;37.70;57.70;;;;;;5035022;28;20434;-44
2021/07/12 08:51:02;;;;;;;4.10;3.80;;;37.10;57.40;;;;;;5034917;28;20021;-44
2021/07/12 08:53:28;;;;;;;4.50;4.10;;;36.80;58.00;;;;;;5033654;28;20034;-42
2021/07/12 08:55:54;;;;;;;5.10;4.70;;;37.00;57.70;;;;;;5034595;28;20104;-46
2021/07/12 08:58:23;;;;;;;4.70;4.30;;;36.20;58.50;;;;;;5034792;28;20033;-41
2021/07/12 09:01:01;;;;;;;5.00;4.32;;;35.80;59.40;;;;;;5034735;28;20021;-40
2021/07/12 09:03:46;;;;;;;5.20;4.45;;;36.20;59.20;;;;;;5034566;28;20053;-44
2021/07/12 09:06:15;;;;;;;5.13;4.65;;;36.00;58.90;;;;;;5034561;28;20024;-44
2021/07/12 09:08:51;;;;;;;4.55;4.25;;;36.00;59.80;;;;;;5033244;28;20488;-44
2021/07/12 09:11:33;;;;;;;5.78;5.00;;;36.70;59.40;;;;;;5034634;28;20034;-42
2021/07/12 09:14:07;;;;;;;4.80;4.50;;;36.80;56.20;;;;;;5034458;28;20026;-41
2021/07/12 09:16:52;;;;;;;4.53;4.22;;;36.40;57.90;;;;;;5033359;28;20377;-43
2021/07/12 09:19:28;;;;;;;4.72;4.32;;;36.70;57.70;;;;;;5034446;28;20026;-45
2021/07/12 09:22:06;;;;;;;4.75;4.32;;;36.00;57.60;;;;;;5034341;28;20025;-46
2021/07/12 09:24:41;;;;;;;4.60;4.30;;;36.20;56.90;;;;;;5034414;28;20465;-45
2021/07/12 09:27:06;;;;;;;;;;;36.30;57.30;;;;;;5034664;28;20067;-46
2021/07/12 09:29:44;;;;;;;5.18;4.68;;;36.20;57.00;;;;;;5034237;28;19950;-43
2021/07/12 09:32:17;;;;;;;4.60;4.18;;;35.60;58.10;;;;;;5034127;28;20029;-43
2021/07/12 09:34:45;;;;;;;4.57;4.18;;;35.50;58.00;;;;;;5034039;28;20025;-45
2021/07/12 09:37:17;;;;;;;4.45;4.15;;;35.50;57.90;;;;;;5032795;28;20464;-44
2021/07/12 09:39:45;;;;;;;4.65;4.35;;;35.60;57.80;;;;;;5033922;28;20068;-44
2021/07/12 09:42:21;;;;;;;4.28;3.97;;;35.40;57.70;;;;;;5033922;28;20049;-43
2021/07/12 09:44:49;;;;;;;5.07;4.68;;;35.70;59.10;;;;;;5033930;28;20036;-40
2021/07/12 09:47:17;;;;;;;4.93;4.55;;;35.30;58.70;;;;;;5033760;28;20075;-41
2021/07/12 09:49:43;;;;;;;5.65;5.25;;;34.60;59.60;;;;;;5033794;28;20488;-43
2021/07/12 09:52:14;;;;;;;5.45;5.03;;;33.40;62.50;;;;;;5032402;28;20495;-43
2021/07/12 09:54:43;;;;;;;5.15;4.82;;;32.80;64.60;;;;;;5033715;28;20038;-48
2021/07/12 09:57:11;;;;;;;5.05;4.72;;;32.00;66.90;;;;;;5033708;28;20354;-41
2021/07/12 09:59:52;;;;;;;5.20;4.80;;;31.90;67.70;;;;;;5033694;28;20021;-41
2021/07/12 10:02:20;;;;;;;7.28;5.50;;;30.90;72.70;;;;;;5033411;28;20042;-42
2021/07/12 10:04:46;;;;;;;5.65;5.13;;;30.60;74.40;;;;;;5033445;28;20026;-43
2021/07/12 10:07:12;;;;;;;8.27;6.18;;;30.50;75.50;;;;;;5032126;28;20471;-45
2021/07/12 10:09:38;;;;;;;5.93;5.43;;;30.10;78.30;;;;;;5033479;28;20037;-43
2021/07/12 10:12:04;;;;;;;5.30;4.88;;;29.90;79.90;;;;;;5033397;28;20420;-42
2021/07/12 10:14:30;;;;;;;6.57;6.07;;;29.80;82.60;;;;;;5033311;28;20025;-45
2021/07/12 10:16:56;;;;;;;6.30;5.80;;;29.60;82.20;;;;;;5033333;28;20068;-43
2021/07/12 10:19:21;;;;;;;6.80;6.20;;;29.20;84.20;;;;;;5033214;28;20457;-42
2021/07/12 10:21:53;;;;;;;6.97;6.38;;;28.60;89.30;;;;;;5033440;28;20040;-41
2021/07/12 10:24:27;;;;;;;7.70;6.90;;;28.20;90.60;;;;;;5031852;28;20028;-44
2021/07/12 10:26:56;;;;;;;7.80;7.20;;;27.80;93.60;;;;;;5033194;28;20066;-42
2021/07/12 10:29:31;;;;;;;7.60;7.00;;;27.70;94.20;;;;;;5032782;28;20025;-47
2021/07/12 10:32:27;;;;;;;6.95;6.43;;;27.90;94.30;;;;;;5033035;28;20041;-41
2021/07/12 10:34:55;;;;;;;6.72;6.13;;;28.30;94.40;;;;;;5028460;28;20079;-42
2021/07/12 10:37:35;;;;;;;7.43;6.68;;;28.10;93.60;;;;;;5031696;28;20053;-46
2021/07/12 10:40:43;;;;;;;7.53;6.82;;;27.60;95.00;;;;;;5032989;28;20033;-45
2021/07/12 10:43:08;;;;;;;7.25;6.65;;;26.90;98.30;;;;;;5032905;28;20113;-42
2021/07/12 10:45:37;;;;;;;7.95;7.25;;;26.30;99.90;;;;;;5032877;28;20568;-42
2021/07/12 10:48:05;;;;;;;8.25;7.47;;;26.20;99.90;;;;;;5032778;28;20033;-42
2021/07/12 10:50:46;;;;;;;8.27;7.47;;;26.20;99.90;;;;;;5032923;28;20029;-41
2021/07/12 10:53:15;;;;;;;7.78;7.07;;;26.20;99.90;;;;;;5031491;28;20112;-45
2021/07/12 10:55:59;;;;;;;10.23;8.50;;;26.20;99.90;;;;;;5032775;28;20082;-44
2021/07/12 10:58:29;;;;;;;9.02;7.85;;;26.50;99.90;;;;;;5032740;28;20100;-42
2021/07/12 11:00:57;;;;;;;7.95;7.35;;;26.80;99.90;;;;;;5032701;28;20067;-43
2021/07/12 11:03:38;;;;;;;8.20;7.40;;;27.10;99.90;;;;;;5032471;28;20099;-40
2021/07/12 11:06:09;;;;;;;6.72;6.03;;;27.30;99.90;;;;;;5032918;28;20104;-41
2021/07/12 11:08:47;;;;;;;6.80;6.20;;;27.70;99.60;;;;;;5031446;28;20021;-42
2021/07/12 11:11:18;;;;;;;6.03;5.43;;;28.10;97.70;;;;;;5032631;28;20025;-42
2021/07/12 11:14:01;;;;;;;5.85;5.35;;;28.30;97.00;;;;;;5032556;28;20049;-42
2021/07/12 11:16:39;;;;;;;6.80;6.30;;;28.50;96.30;;;;;;5032517;28;20108;-42
2021/07/12 11:19:27;;;;;;;8.68;7.78;;;28.40;97.00;;;;;;5032615;28;20021;-43
2021/07/12 11:21:54;;;;;;;7.45;6.70;;;27.80;98.80;;;;;;5032429;28;20496;-42
2021/07/12 11:24:22;;;;;;;7.45;6.75;;;27.50;99.50;;;;;;5031186;28;20053;-46
2021/07/12 11:26:56;;;;;;;7.35;6.30;;;27.60;99.30;;;;;;5032570;28;20084;-45
2021/07/12 11:29:37;;;;;;;8.50;7.60;;;27.80;98.60;;;;;;5032445;28;20066;-45
2021/07/12 11:32:04;;;;;;;9.13;8.32;;;27.70;97.50;;;;;;5031216;28;20407;-43
2021/07/12 11:34:32;;;;;;;11.43;7.88;;;27.40;97.70;;;;;;5032315;28;20025;-46
2021/07/12 11:37:13;;;;;;;7.07;6.47;;;27.50;98.60;;;;;;5031694;28;20025;-44
2021/07/12 11:40:06;;;;;;;7.75;7.03;;;27.70;97.80;;;;;;5032511;28;20060;-43
2021/07/12 11:42:38;;;;;;;8.70;7.22;;;27.90;97.90;;;;;;5035165;28;20068;-44
2021/07/12 11:45:07;;;;;;;8.10;7.40;;;27.90;97.80;;;;;;5036105;28;20128;-45
2021/07/12 11:47:41;;;;;;;8.82;6.95;;;27.80;97.20;;;;;;5036165;28;20033;-43
2021/07/12 11:50:11;;;;;;;6.85;6.35;;;27.70;97.70;;;;;;5036065;28;20025;-46
2021/07/12 11:52:39;;;;;;;10.68;7.75;;;27.80;97.30;;;;;;5034854;28;20025;-43
2021/07/12 11:55:06;;;;;;;6.00;5.40;;;28.10;96.80;;;;;;5035962;28;20060;-46
2021/07/12 11:57:34;;;;;;;7.70;7.03;;;28.20;96.00;;;;;;5035811;28;20021;-43
2021/07/12 11:59:59;;;;;;;7.43;6.22;;;28.30;94.80;;;;;;5035908;28;20025;-45
2021/07/12 12:02:25;;;;;;;7.40;6.80;;;28.30;95.20;;;;;;5035527;28;20091;-44
2021/07/12 12:04:59;;;;;;;7.75;7.05;;;28.30;95.70;;;;;;5035745;28;20026;-42
2021/07/12 12:07:28;;;;;;;8.63;7.72;;;28.00;97.00;;;;;;5034378;28;20029;-43
2021/07/12 12:10:00;;;;;;;7.40;6.70;;;27.60;98.30;;;;;;5035574;28;20036;-43
2021/07/12 12:12:31;;;;;;;7.22;6.65;;;27.30;99.80;;;;;;5035609;28;20076;-44
2021/07/12 12:15:00;;;;;;;9.52;7.38;;;27.20;99.80;;;;;;5035531;28;20057;-48
2021/07/12 12:17:26;;;;;;;8.40;6.70;;;27.10;99.90;;;;;;5035520;28;20512;-43
2021/07/12 12:20:26;;;;;;;7.80;7.20;;;26.90;99.90;;;;;;5035564;28;20105;-41
2021/07/12 12:23:10;;;;;;;8.60;7.80;;;26.70;99.90;;;;;;5022547;28;20038;-43
2021/07/12 12:26:01;;;;;;;8.35;7.55;;;26.40;99.90;;;;;;5035450;28;20103;-40
2021/07/12 12:28:34;;;;;;;7.40;6.70;;;26.30;99.90;;;;;;5035318;28;20382;-40
2021/07/12 12:31:10;;;;;;;7.63;6.90;;;26.30;99.90;;;;;;5035278;28;20393;-43
2021/07/12 12:33:36;;;;;;;;;;;26.60;99.90;;;;;;5035609;28;20030;-45
2021/07/12 12:36:07;;;;;;;8.35;7.50;;;26.60;99.90;;;;;;5035134;28;19920;-48
2021/07/12 12:38:34;;;;;;;7.57;6.97;;;26.50;99.90;;;;;;5033970;28;20104;-42
2021/07/12 12:41:04;;;;;;;8.40;7.60;;;26.40;99.90;;;;;;5035091;28;20457;-46
2021/07/12 12:43:29;;;;;;;8.20;7.50;;;26.30;99.90;;;;;;5033602;28;20144;-42
2021/07/12 12:45:59;;;;;;;7.20;6.45;;;26.30;99.90;;;;;;5035044;28;20144;-44
2021/07/12 12:48:35;;;;;;;8.07;7.30;;;26.20;99.90;;;;;;5034991;28;20025;-41
2021/07/12 12:51:31;;;;;;;8.85;7.95;;;26.00;99.90;;;;;;5034687;28;20025;-43
2021/07/12 12:54:10;;;;;;;8.10;7.38;;;25.80;99.90;;;;;;5033647;28;20032;-44
2021/07/12 12:56:46;;;;;;;8.55;7.75;;;25.60;99.90;;;;;;5034771;28;20044;-42
2021/07/12 12:59:12;;;;;;;8.68;7.88;;;25.40;99.90;;;;;;5034858;28;20389;-43
2021/07/12 13:01:40;;;;;;;9.43;8.35;;;25.20;99.90;;;;;;5034694;28;20057;-42